createdAt,value
2022-11-16T00:02:25.040Z,7.63
2022-11-16T00:07:33.727Z,6.35
2022-11-16T00:12:41.106Z,6.80
2022-11-16T00:17:44.544Z,6.95
2022-11-16T00:22:48.009Z,6.70
2022-11-16T00:27:51.485Z,7.20
2022-11-16T00:32:54.785Z,6.57
2022-11-16T00:37:58.683Z,6.72
2022-11-16T00:43:01.772Z,7.30
2022-11-16T00:53:12.508Z,6.57
2022-11-16T00:58:16.392Z,6.75
2022-11-16T01:03:22.745Z,6.78
2022-11-16T01:08:26.298Z,6.93
2022-11-16T01:13:30.003Z,8.38
2022-11-16T01:18:33.848Z,8.00
2022-11-16T01:23:37.276Z,8.95
2022-11-16T01:28:41.506Z,9.85
2022-11-16T01:33:46.191Z,10.50
2022-11-16T01:38:55.880Z,10.27
2022-11-16T01:44:33.938Z,9.95
2022-11-16T01:49:49.794Z,8.60
2022-11-16T01:55:03.089Z,8.85
2022-11-16T02:00:18.403Z,8.30
2022-11-16T02:06:02.800Z,7.35
2022-11-16T02:11:34.114Z,6.55
2022-11-16T02:16:46.957Z,8.00
2022-11-16T02:22:13.903Z,6.97
2022-11-16T02:27:36.921Z,6.65
2022-11-16T02:32:59.770Z,6.15
2022-11-16T02:38:11.112Z,7.03
2022-11-16T02:43:21.981Z,6.10
2022-11-16T02:48:33.987Z,6.22
2022-11-16T02:53:43.159Z,5.90
2022-11-16T02:58:48.663Z,5.85
2022-11-16T03:04:02.542Z,5.90
2022-11-16T03:09:17.936Z,6.35
2022-11-16T03:14:26.234Z,6.35
2022-11-16T03:19:58.491Z,6.65
2022-11-16T03:25:02.335Z,6.93
2022-11-16T03:30:13.526Z,6.78
2022-11-16T03:35:30.508Z,6.65
2022-11-16T03:40:37.727Z,6.80
2022-11-16T03:45:41.854Z,7.03
2022-11-16T03:50:46.515Z,6.05
2022-11-16T03:55:50.738Z,6.35
2022-11-16T04:00:54.600Z,6.55
2022-11-16T04:05:58.409Z,6.65
2022-11-16T04:11:01.945Z,6.70
2022-11-16T04:16:10.510Z,6.07
2022-11-16T04:21:22.431Z,5.95
2022-11-16T04:26:26.897Z,6.10
2022-11-16T04:31:30.733Z,6.00
2022-11-16T04:36:39.469Z,5.80
2022-11-16T04:41:42.992Z,6.07
2022-11-16T04:46:47.415Z,5.95
2022-11-16T04:51:51.074Z,7.13
2022-11-16T05:01:58.451Z,5.95
2022-11-16T05:07:02.014Z,6.22
2022-11-16T05:12:06.443Z,5.63
2022-11-16T05:17:10.323Z,5.65
2022-11-16T05:22:14.209Z,5.75
2022-11-16T05:27:19.345Z,5.50
2022-11-16T05:32:24.566Z,4.82
2022-11-16T05:37:31.294Z,4.82
2022-11-16T05:42:34.938Z,5.47
2022-11-16T05:47:39.222Z,4.78
2022-11-16T05:52:43.185Z,5.13
2022-11-16T05:57:48.230Z,5.03
2022-11-16T06:02:51.944Z,4.90
2022-11-16T06:08:03.550Z,5.75
2022-11-16T06:13:07.181Z,7.32
2022-11-16T06:18:10.500Z,8.10
2022-11-16T06:28:17.221Z,6.32
2022-11-16T06:33:20.633Z,5.18
2022-11-16T06:38:24.150Z,5.20
2022-11-16T06:43:29.631Z,4.90
2022-11-16T06:48:33.457Z,4.70
2022-11-16T06:53:39.660Z,4.70
2022-11-16T06:58:43.954Z,4.53
2022-11-16T07:03:49.825Z,3.88
2022-11-16T07:08:53.348Z,4.22
2022-11-16T07:14:01.368Z,4.40
2022-11-16T07:19:05.831Z,4.22
2022-11-16T07:24:11.275Z,4.90
2022-11-16T07:29:15.134Z,4.90
2022-11-16T07:34:37.033Z,6.00
2022-11-16T07:39:47.790Z,5.50
2022-11-16T07:44:51.762Z,6.63
2022-11-16T07:49:55.787Z,5.00
2022-11-16T07:55:02.982Z,4.65
2022-11-16T08:00:08.054Z,5.75
2022-11-16T08:05:22.777Z,6.03
2022-11-16T08:10:27.505Z,6.00
2022-11-16T08:15:31.448Z,5.60
2022-11-16T08:20:38.858Z,5.50
2022-11-16T08:25:42.529Z,6.90
2022-11-16T08:30:50.971Z,5.65
2022-11-16T08:35:57.287Z,13.32
2022-11-16T08:41:01.828Z,6.45
2022-11-16T08:46:06.866Z,5.65
2022-11-16T08:51:20.552Z,4.80
2022-11-16T08:56:31.427Z,5.47
2022-11-16T09:01:34.996Z,4.97
2022-11-16T09:06:38.329Z,4.82
2022-11-16T09:11:41.711Z,5.93
2022-11-16T09:16:45.062Z,5.03
2022-11-16T09:21:48.346Z,4.93
2022-11-16T09:31:55.908Z,4.88
2022-11-16T09:36:59.377Z,4.50
2022-11-16T09:42:16.711Z,5.40
2022-11-16T09:47:24.035Z,4.85
2022-11-16T09:52:31.621Z,5.40
2022-11-16T09:57:38.005Z,5.95
2022-11-16T10:03:07.396Z,4.65
2022-11-16T10:08:15.326Z,5.55
2022-11-16T10:13:18.618Z,5.30
2022-11-16T10:18:27.440Z,5.78
2022-11-16T10:23:45.890Z,5.18
2022-11-16T10:29:10.965Z,5.50
2022-11-16T10:34:20.606Z,5.43
2022-11-16T10:39:25.924Z,5.68
2022-11-16T10:44:44.337Z,5.28
2022-11-16T10:50:00.156Z,5.50
2022-11-16T10:55:07.078Z,5.00
2022-11-16T11:00:12.868Z,5.32
2022-11-16T11:05:21.948Z,5.15
2022-11-16T11:10:37.087Z,4.60
2022-11-16T11:15:43.122Z,5.07
2022-11-16T11:21:06.499Z,5.20
2022-11-16T11:26:36.532Z,5.25
2022-11-16T11:31:46.504Z,4.90
2022-11-16T11:36:58.800Z,4.87
2022-11-16T11:42:20.480Z,4.97
2022-11-16T11:47:56.289Z,4.88
2022-11-16T11:53:16.406Z,6.10
2022-11-16T11:58:20.085Z,5.38
2022-11-16T12:03:48.177Z,4.70
2022-11-16T12:09:15.829Z,5.88
2022-11-16T12:14:56.269Z,5.53
2022-11-16T12:20:31.934Z,5.00
2022-11-16T12:25:47.118Z,5.00
2022-11-16T12:30:59.208Z,4.85
2022-11-16T12:36:16.059Z,5.20
2022-11-16T12:41:50.379Z,5.30
2022-11-16T12:46:56.605Z,5.43
2022-11-16T12:52:02.630Z,5.15
2022-11-16T12:57:19.520Z,5.10
2022-11-16T13:02:41.765Z,5.35
2022-11-16T13:07:49.165Z,4.35
2022-11-16T13:13:22.019Z,5.07
2022-11-16T13:18:24.410Z,5.38
2022-11-16T13:23:59.844Z,5.53
2022-11-16T13:29:21.207Z,4.82
2022-11-16T13:34:32.872Z,4.43
2022-11-16T13:39:51.394Z,4.82
2022-11-16T13:45:21.118Z,4.80
2022-11-16T13:50:37.522Z,5.68
2022-11-16T13:55:44.527Z,6.00
2022-11-16T14:01:06.785Z,5.45
2022-11-16T14:06:25.167Z,6.07
2022-11-16T14:11:32.713Z,5.30
2022-11-16T14:16:50.737Z,5.45
2022-11-16T14:22:05.789Z,5.15
2022-11-16T14:27:35.720Z,4.75
2022-11-16T14:32:48.134Z,4.93
2022-11-16T14:43:16.340Z,5.13
2022-11-16T14:48:23.052Z,4.80
2022-11-16T14:53:28.472Z,5.00
2022-11-16T14:58:31.757Z,4.80
2022-11-16T15:03:40.544Z,4.75
2022-11-16T15:08:49.350Z,4.55
2022-11-16T15:13:54.062Z,4.38
2022-11-16T15:19:02.372Z,4.55
2022-11-16T15:24:29.343Z,5.13
2022-11-16T15:29:29.442Z,5.53
2022-11-16T15:34:32.746Z,5.13
2022-11-16T15:39:36.728Z,4.43
2022-11-16T15:44:40.466Z,5.53
2022-11-16T15:49:46.697Z,5.90
2022-11-16T15:54:58.125Z,5.18
2022-11-16T16:00:02.211Z,4.80
2022-11-16T16:05:23.780Z,5.40
2022-11-16T16:10:27.524Z,6.05
2022-11-16T16:15:34.210Z,5.45
2022-11-16T16:20:38.162Z,4.97
2022-11-16T16:25:46.021Z,4.13
2022-11-16T16:30:53.564Z,3.20
2022-11-16T16:35:56.876Z,3.72
2022-11-16T16:41:05.655Z,3.80
2022-11-16T16:46:11.921Z,3.35
2022-11-16T16:51:15.223Z,3.53
2022-11-16T16:56:18.583Z,3.20
2022-11-16T17:01:22.736Z,3.13
2022-11-16T17:06:26.181Z,3.50
2022-11-16T17:11:29.363Z,2.83
2022-11-16T17:21:36.614Z,2.88
2022-11-16T17:26:46.241Z,3.20
2022-11-16T17:31:50.032Z,3.80
2022-11-16T17:36:53.362Z,3.13
2022-11-16T17:46:59.797Z,2.90
2022-11-16T17:52:03.399Z,3.00
2022-11-16T17:57:06.550Z,3.17
2022-11-16T18:07:17.642Z,3.72
2022-11-16T18:12:27.910Z,2.55
2022-11-16T18:17:31.773Z,3.03
2022-11-16T18:22:35.001Z,2.38
2022-11-16T18:27:39.096Z,3.22
2022-11-16T18:32:42.483Z,3.00
2022-11-16T18:37:49.190Z,3.20
2022-11-16T18:42:52.514Z,3.08
2022-11-16T18:52:59.204Z,3.30
2022-11-16T18:58:04.525Z,2.80
2022-11-16T19:03:17.093Z,2.88
2022-11-16T19:08:20.608Z,3.53
2022-11-16T19:18:28.160Z,3.45
2022-11-16T19:23:36.253Z,3.30
2022-11-16T19:28:45.619Z,3.53
2022-11-16T19:33:53.049Z,3.40
2022-11-16T19:38:56.582Z,3.50
2022-11-16T19:44:00.606Z,3.67
2022-11-16T19:49:04.130Z,3.28
2022-11-16T19:54:07.626Z,2.92
2022-11-16T19:59:11.399Z,4.18
2022-11-16T20:04:14.769Z,4.95
2022-11-16T20:09:18.327Z,3.45
2022-11-16T20:14:21.727Z,3.90
2022-11-16T20:19:25.350Z,3.53
2022-11-16T20:24:28.805Z,3.85
2022-11-16T20:29:32.107Z,4.00
2022-11-16T20:39:38.739Z,3.92
2022-11-16T20:44:42.078Z,3.47
2022-11-16T20:54:51.495Z,4.10
2022-11-16T20:59:54.942Z,4.38
2022-11-16T21:05:00.458Z,4.80
2022-11-16T21:10:06.791Z,4.00
2022-11-16T21:15:10.876Z,3.83
2022-11-16T21:20:26.963Z,5.20
2022-11-16T21:25:30.949Z,4.38
2022-11-16T21:30:34.328Z,4.85
2022-11-16T21:35:37.486Z,3.83
2022-11-16T21:40:40.565Z,3.88
2022-11-16T21:50:47.503Z,3.53
2022-11-16T21:55:50.895Z,4.05
2022-11-16T22:01:00.368Z,4.15
2022-11-16T22:06:13.941Z,4.43
2022-11-16T22:11:17.891Z,4.20
2022-11-16T22:16:21.710Z,4.50
2022-11-16T22:21:24.829Z,3.88
2022-11-16T22:26:28.191Z,4.20
2022-11-16T22:31:31.852Z,3.78
2022-11-16T22:36:35.403Z,4.78
2022-11-16T22:41:38.991Z,4.50
2022-11-16T22:46:42.759Z,5.22
2022-11-16T22:51:46.619Z,4.70
2022-11-16T22:56:50.297Z,5.63
2022-11-16T23:01:53.772Z,5.47
2022-11-16T23:12:00.305Z,5.30
2022-11-16T23:17:04.304Z,5.57
2022-11-16T23:22:16.286Z,4.72
2022-11-16T23:27:19.763Z,5.20
2022-11-16T23:32:23.246Z,4.28
2022-11-16T23:37:26.606Z,4.95
2022-11-16T23:42:29.713Z,5.40
2022-11-16T23:52:37.046Z,4.18
2022-11-16T23:57:40.591Z,4.78
